createdAt,value
2024-01-26T00:00:19.937Z,101644.97
2024-01-26T00:02:47.234Z,101646.69
2024-01-26T00:05:14.352Z,101637.06
2024-01-26T00:07:42.158Z,101655.47
2024-01-26T00:10:09.478Z,101646.69
2024-01-26T00:12:37.295Z,101656.34
2024-01-26T00:15:04.612Z,101638.81
2024-01-26T00:17:31.657Z,101648.44
2024-01-26T00:19:58.704Z,101637.94
2024-01-26T00:22:25.678Z,101627.44
2024-01-26T00:24:52.667Z,101630.06
2024-01-26T00:27:19.686Z,101637.94
2024-01-26T00:29:46.876Z,101641.44
2024-01-26T00:32:13.803Z,101637.06
2024-01-26T00:34:41.264Z,101630.91
2024-01-26T00:37:08.671Z,101627.41
2024-01-26T00:39:35.798Z,101625.69
2024-01-26T00:42:02.866Z,101633.56
2024-01-26T00:44:29.907Z,101629.19
2024-01-26T00:46:56.912Z,101626.56
2024-01-26T00:49:30.589Z,101624.81
2024-01-26T00:52:01.658Z,101618.66
2024-01-26T00:54:28.693Z,101613.44
2024-01-26T00:56:55.709Z,101618.69
2024-01-26T00:59:22.674Z,101613.44
2024-01-26T01:01:49.825Z,101607.28
2024-01-26T01:04:16.785Z,101623.06
2024-01-26T01:06:43.710Z,101615.16
2024-01-26T01:09:11.067Z,101622.19
2024-01-26T01:11:38.081Z,101623.03
2024-01-26T01:14:05.214Z,101616.06
2024-01-26T01:16:33.384Z,101608.16
2024-01-26T01:19:00.606Z,101602.03
2024-01-26T01:21:27.612Z,101611.66
2024-01-26T01:23:54.568Z,101605.53
2024-01-26T01:26:21.480Z,101598.50
2024-01-26T01:28:48.405Z,101603.75
2024-01-26T01:31:15.378Z,101576.63
2024-01-26T01:33:42.497Z,101597.63
2024-01-26T01:36:09.536Z,101593.25
2024-01-26T01:38:36.523Z,101602.91
2024-01-26T01:41:03.956Z,101586.28
2024-01-26T01:43:31.268Z,101596.78
2024-01-26T01:45:58.216Z,101595.91
2024-01-26T01:48:25.771Z,101590.66
2024-01-26T01:50:53.033Z,101583.63
2024-01-26T01:53:21.375Z,101592.41
2024-01-26T01:55:49.568Z,101595.88
2024-01-26T01:58:17.500Z,101593.28
2024-01-26T02:00:44.592Z,101585.38
2024-01-26T02:03:11.675Z,101595.03
2024-01-26T02:05:41.798Z,101588.00
2024-01-26T02:08:09.009Z,101589.78
2024-01-26T02:10:35.957Z,101578.38
2024-01-26T02:13:02.974Z,101593.28
2024-01-26T02:15:29.914Z,101593.25
2024-01-26T02:17:56.983Z,101595.03
2024-01-26T02:20:35.297Z,101586.25
2024-01-26T02:23:10.337Z,101595.03
2024-01-26T02:25:37.390Z,101569.63
2024-01-26T02:28:04.991Z,101581.88
2024-01-26T02:30:34.782Z,101588.88
2024-01-26T02:33:01.876Z,101573.13
2024-01-26T02:35:29.008Z,101573.13
2024-01-26T02:37:56.057Z,101570.50
2024-01-26T02:40:23.044Z,101575.75
2024-01-26T02:42:50.088Z,101589.78
2024-01-26T02:45:17.040Z,101589.78
2024-01-26T02:47:44.188Z,101581.00
2024-01-26T02:50:11.492Z,101591.53
2024-01-26T02:52:38.475Z,101586.25
2024-01-26T02:55:05.813Z,101571.38
2024-01-26T02:57:32.756Z,101580.16
2024-01-26T02:59:59.786Z,101581.88
2024-01-26T03:02:26.859Z,101567.88
2024-01-26T03:04:53.774Z,101572.25
2024-01-26T03:07:20.754Z,101576.66
2024-01-26T03:09:47.874Z,101578.41
2024-01-26T03:12:14.951Z,101585.41
2024-01-26T03:14:41.980Z,101575.75
2024-01-26T03:17:08.883Z,101587.13
2024-01-26T03:19:37.415Z,101584.50
2024-01-26T03:22:04.741Z,101588.91
2024-01-26T03:24:31.737Z,101594.13
2024-01-26T03:26:59.855Z,101585.38
2024-01-26T03:29:26.837Z,101565.25
2024-01-26T03:31:53.843Z,101572.25
2024-01-26T03:34:21.291Z,101581.88
2024-01-26T03:36:48.548Z,101575.75
2024-01-26T03:39:15.670Z,101581.00
2024-01-26T03:41:42.905Z,101585.41
2024-01-26T03:44:11.816Z,101588.03
2024-01-26T03:46:45.059Z,101570.50
2024-01-26T03:49:12.169Z,101598.50
2024-01-26T03:51:39.593Z,101578.38
2024-01-26T03:54:07.277Z,101576.63
2024-01-26T03:56:34.419Z,101584.50
2024-01-26T03:59:01.431Z,101574.88
2024-01-26T04:01:28.399Z,101580.13
2024-01-26T04:03:58.437Z,101577.53
2024-01-26T04:06:28.132Z,101570.50
2024-01-26T04:08:59.763Z,101571.38
2024-01-26T04:11:26.912Z,101581.88
2024-01-26T04:13:53.833Z,101584.53
2024-01-26T04:16:20.758Z,101589.75
2024-01-26T04:18:48.517Z,101581.00
2024-01-26T04:21:20.229Z,101556.50
2024-01-26T04:23:47.697Z,101566.13
2024-01-26T04:26:16.150Z,101583.63
2024-01-26T04:28:43.158Z,101583.63
2024-01-26T04:31:10.717Z,101581.84
2024-01-26T04:33:38.055Z,101595.88
2024-01-26T04:36:09.454Z,101591.47
2024-01-26T04:38:39.835Z,101592.34
2024-01-26T04:41:06.937Z,101597.59
2024-01-26T04:43:33.941Z,101605.47
2024-01-26T04:46:04.129Z,101606.34
2024-01-26T04:48:31.127Z,101602.84
2024-01-26T04:50:58.209Z,101574.81
2024-01-26T04:53:25.220Z,101581.81
2024-01-26T04:55:52.137Z,101579.22
2024-01-26T04:58:19.074Z,101594.97
2024-01-26T05:00:49.017Z,101578.34
2024-01-26T05:03:16.072Z,101578.34
2024-01-26T05:05:43.207Z,101575.72
2024-01-26T05:08:10.204Z,101577.44
2024-01-26T05:10:37.175Z,101571.34
2024-01-26T05:13:04.442Z,101569.56
2024-01-26T05:15:32.693Z,101559.06
2024-01-26T05:17:59.678Z,101568.72
2024-01-26T05:20:26.719Z,101563.44
2024-01-26T05:22:53.678Z,101566.97
2024-01-26T05:25:20.788Z,101559.06
2024-01-26T05:27:47.884Z,101567.84
2024-01-26T05:30:15.030Z,101563.50
2024-01-26T05:32:42.324Z,101559.09
2024-01-26T05:35:10.296Z,101551.22
2024-01-26T05:37:37.414Z,101559.97
2024-01-26T05:40:08.630Z,101563.47
2024-01-26T05:42:38.831Z,101566.97
2024-01-26T05:45:06.486Z,101560.84
2024-01-26T05:47:33.642Z,101559.97
2024-01-26T05:50:00.807Z,101573.97
2024-01-26T05:52:27.822Z,101564.34
2024-01-26T05:54:58.283Z,101573.97
2024-01-26T05:57:25.198Z,101574.81
2024-01-26T05:59:52.199Z,101580.97
2024-01-26T06:02:22.002Z,101567.84
2024-01-26T06:04:49.024Z,101574.00
2024-01-26T06:07:16.020Z,101562.59
2024-01-26T06:09:42.976Z,101583.63
2024-01-26T06:12:10.098Z,101578.38
2024-01-26T06:14:37.218Z,101581.84
2024-01-26T06:17:04.347Z,101581.88
2024-01-26T06:19:31.557Z,101573.09
2024-01-26T06:21:58.872Z,101589.72
2024-01-26T06:24:25.980Z,101580.09
2024-01-26T06:26:52.950Z,101595.84
2024-01-26T06:29:23.958Z,101571.31
2024-01-26T06:31:53.633Z,101565.22
2024-01-26T06:34:20.819Z,101580.97
2024-01-26T06:36:47.972Z,101576.56
2024-01-26T06:39:14.974Z,101574.81
2024-01-26T06:41:43.220Z,101573.09
2024-01-26T06:44:15.478Z,101585.34
2024-01-26T06:46:42.556Z,101573.97
2024-01-26T06:49:10.800Z,101568.72
2024-01-26T06:51:40.604Z,101572.22
2024-01-26T06:54:07.605Z,101562.59
2024-01-26T06:56:34.640Z,101565.22
2024-01-26T06:59:01.634Z,101574.84
2024-01-26T07:01:31.687Z,101566.09
2024-01-26T07:03:58.804Z,101566.06
2024-01-26T07:06:26.019Z,101569.59
2024-01-26T07:08:53.174Z,101571.34
2024-01-26T07:11:25.261Z,101570.47
2024-01-26T07:13:52.181Z,101559.09
2024-01-26T07:16:19.186Z,101551.19
2024-01-26T07:18:46.524Z,101554.72
2024-01-26T07:21:19.448Z,101552.97
2024-01-26T07:23:46.489Z,101554.72
2024-01-26T07:26:22.353Z,101539.81
2024-01-26T07:28:49.732Z,101550.34
2024-01-26T07:31:17.036Z,101545.09
2024-01-26T07:33:47.925Z,101550.38
2024-01-26T07:36:15.080Z,101540.72
2024-01-26T07:38:42.304Z,101532.84
2024-01-26T07:41:09.748Z,101528.47
2024-01-26T07:43:36.762Z,101527.59
2024-01-26T07:46:03.957Z,101523.22
2024-01-26T07:48:31.632Z,101505.69
2024-01-26T07:50:58.843Z,101517.09
2024-01-26T07:53:25.951Z,101507.47
2024-01-26T07:55:52.945Z,101522.34
2024-01-26T07:58:19.980Z,101518.84
2024-01-26T08:00:49.040Z,101496.97
2024-01-26T08:03:16.692Z,101512.72
2024-01-26T08:05:43.968Z,101502.22
2024-01-26T08:08:11.029Z,101518.84
2024-01-26T08:10:38.257Z,101510.97
2024-01-26T08:13:05.616Z,101498.69
2024-01-26T08:15:32.655Z,101489.94
2024-01-26T08:18:00.123Z,101493.47
2024-01-26T08:20:27.244Z,101492.59
2024-01-26T08:22:54.460Z,101484.72
2024-01-26T08:25:21.621Z,101494.34
2024-01-26T08:27:48.956Z,101514.44
2024-01-26T08:30:17.194Z,101501.34
2024-01-26T08:32:44.882Z,101503.94
2024-01-26T08:35:15.400Z,101500.44
2024-01-26T08:37:42.619Z,101497.84
2024-01-26T08:40:10.679Z,101494.31
2024-01-26T08:42:37.986Z,101492.59
2024-01-26T08:45:05.704Z,101491.69
2024-01-26T08:47:32.850Z,101488.19
2024-01-26T08:50:00.083Z,101489.06
2024-01-26T08:52:27.179Z,101485.56
2024-01-26T08:54:54.531Z,101503.97
2024-01-26T08:57:21.692Z,101485.56
2024-01-26T08:59:48.779Z,101477.69
2024-01-26T09:02:15.902Z,101487.31
2024-01-26T09:04:43.599Z,101476.81
2024-01-26T09:07:11.255Z,101470.69
2024-01-26T09:09:40.281Z,101459.31
2024-01-26T09:12:07.567Z,101473.28
2024-01-26T09:14:34.982Z,101468.06
2024-01-26T09:17:02.296Z,101456.69
2024-01-26T09:19:29.573Z,101446.19
2024-01-26T09:21:57.248Z,101451.44
2024-01-26T09:24:24.488Z,101456.69
2024-01-26T09:26:54.031Z,101456.66
2024-01-26T09:29:21.278Z,101450.56
2024-01-26T09:31:48.480Z,101441.78
2024-01-26T09:34:15.791Z,101436.53
2024-01-26T09:36:43.067Z,101446.19
2024-01-26T09:39:10.716Z,101458.44
2024-01-26T09:41:38.004Z,101449.66
2024-01-26T09:44:07.738Z,101437.41
2024-01-26T09:46:36.197Z,101434.78
2024-01-26T09:49:08.023Z,101430.41
2024-01-26T09:51:35.311Z,101431.28
2024-01-26T09:54:09.080Z,101412.91
2024-01-26T09:56:39.862Z,101431.28
2024-01-26T09:59:09.439Z,101428.66
2024-01-26T10:01:36.993Z,101430.41
2024-01-26T10:04:04.720Z,101411.16
2024-01-26T10:06:32.532Z,101433.00
2024-01-26T10:08:59.941Z,101447.03
2024-01-26T10:11:27.168Z,101447.00
2024-01-26T10:13:54.190Z,101451.38
2024-01-26T10:16:21.804Z,101434.75
2024-01-26T10:18:49.962Z,101445.28
2024-01-26T10:21:18.335Z,101454.03
2024-01-26T10:23:48.047Z,101442.63
2024-01-26T10:26:15.629Z,101436.50
2024-01-26T10:28:44.499Z,101430.38
2024-01-26T10:31:12.124Z,101424.25
2024-01-26T10:33:46.212Z,101436.47
2024-01-26T10:36:15.496Z,101424.22
2024-01-26T10:38:49.246Z,101417.19
2024-01-26T10:41:21.857Z,101431.19
2024-01-26T10:43:53.995Z,101414.53
2024-01-26T10:46:21.285Z,101415.38
2024-01-26T10:48:50.854Z,101418.91
2024-01-26T10:51:19.971Z,101423.28
2024-01-26T10:53:47.978Z,101416.28
2024-01-26T10:56:15.758Z,101404.84
2024-01-26T10:58:42.851Z,101396.09
2024-01-26T11:01:11.862Z,101401.38
2024-01-26T11:03:39.258Z,101403.94
2024-01-26T11:06:09.631Z,101413.56
2024-01-26T11:08:37.446Z,101415.31
2024-01-26T11:11:04.923Z,101397.75
2024-01-26T11:13:38.844Z,101418.78
2024-01-26T11:16:07.429Z,101379.41
2024-01-26T11:18:38.767Z,101402.16
2024-01-26T11:21:06.281Z,101340.13
2024-01-26T11:23:42.332Z,101386.38
2024-01-26T11:26:16.908Z,101397.78
2024-01-26T11:28:46.415Z,101386.38
2024-01-26T11:31:13.642Z,101379.31
2024-01-26T11:33:42.198Z,101393.31
2024-01-26T11:36:13.850Z,101364.38
2024-01-26T11:38:43.787Z,101398.56
2024-01-26T11:41:12.294Z,101391.59
2024-01-26T11:43:46.368Z,101399.53
2024-01-26T11:46:14.678Z,101394.28
2024-01-26T11:48:42.868Z,101400.44
2024-01-26T11:51:10.313Z,101403.09
2024-01-26T11:53:37.695Z,101394.28
2024-01-26T11:56:05.943Z,101391.66
2024-01-26T11:58:33.666Z,101393.44
2024-01-26T12:01:03.343Z,101408.34
2024-01-26T12:03:30.861Z,101382.06
2024-01-26T12:05:58.567Z,101354.06
2024-01-26T12:08:26.313Z,101392.63
2024-01-26T12:10:55.949Z,101419.72
2024-01-26T12:13:25.892Z,101382.97
2024-01-26T12:15:53.015Z,101368.16
2024-01-26T12:18:20.245Z,101379.50
2024-01-26T12:20:51.951Z,101383.00
2024-01-26T12:23:21.201Z,101404.00
2024-01-26T12:25:53.521Z,101370.78
2024-01-26T12:28:22.481Z,101393.47
2024-01-26T12:30:50.570Z,101386.50
2024-01-26T12:33:18.203Z,101383.84
2024-01-26T12:35:49.085Z,101365.47
2024-01-26T12:38:17.266Z,101392.56
2024-01-26T12:40:44.670Z,101385.53
2024-01-26T12:43:13.421Z,101387.28
2024-01-26T12:45:40.761Z,101385.56
2024-01-26T12:48:09.367Z,101392.56
2024-01-26T12:50:36.646Z,101387.34
2024-01-26T12:53:04.601Z,101384.69
2024-01-26T12:55:31.678Z,101363.69
2024-01-26T12:57:58.720Z,101380.34
2024-01-26T13:00:27.092Z,101382.09
2024-01-26T13:02:55.324Z,101368.06
2024-01-26T13:05:23.059Z,101361.97
2024-01-26T13:07:50.766Z,101382.97
2024-01-26T13:10:18.117Z,101380.34
2024-01-26T13:12:45.494Z,101376.88
2024-01-26T13:15:14.142Z,101384.72
2024-01-26T13:17:41.644Z,101362.84
2024-01-26T13:20:19.413Z,101375.94
2024-01-26T13:22:49.221Z,101377.69
2024-01-26T13:25:16.935Z,101368.06
2024-01-26T13:27:44.959Z,101382.06
2024-01-26T13:30:13.513Z,101382.94
2024-01-26T13:32:47.396Z,101383.84
2024-01-26T13:35:16.332Z,101377.72
2024-01-26T13:37:43.545Z,101383.84
2024-01-26T13:40:11.397Z,101394.31
2024-01-26T13:42:39.023Z,101406.63
2024-01-26T13:45:09.899Z,101382.13
2024-01-26T13:47:37.200Z,101397.88
2024-01-26T13:50:04.902Z,101401.34
2024-01-26T13:52:32.185Z,101402.22
2024-01-26T13:54:59.318Z,101400.50
2024-01-26T13:57:26.677Z,101388.22
2024-01-26T13:59:53.974Z,101397.00
2024-01-26T14:02:41.179Z,101402.25
2024-01-26T14:05:09.128Z,101397.88
2024-01-26T14:07:36.380Z,101403.13
2024-01-26T14:10:03.995Z,101403.13
2024-01-26T14:12:31.117Z,101409.22
2024-01-26T14:15:01.309Z,101402.22
2024-01-26T14:17:28.676Z,101405.72
2024-01-26T14:19:56.050Z,101402.22
2024-01-26T14:22:23.293Z,101419.72
2024-01-26T14:24:50.333Z,101404.84
2024-01-26T14:27:20.376Z,101434.59
2024-01-26T14:29:47.647Z,101424.97
2024-01-26T14:32:14.863Z,101413.56
2024-01-26T14:34:42.079Z,101429.34
2024-01-26T14:37:10.296Z,101442.50
2024-01-26T14:39:39.790Z,101454.72
2024-01-26T14:42:08.008Z,101445.09
2024-01-26T14:44:36.693Z,101460.00
2024-01-26T14:47:04.682Z,101480.19
2024-01-26T14:49:33.218Z,101467.03
2024-01-26T14:52:01.892Z,101470.56
2024-01-26T14:54:29.234Z,101485.41
2024-01-26T14:56:56.283Z,101494.19
2024-01-26T14:59:23.417Z,101497.66
2024-01-26T15:01:50.608Z,101512.56
2024-01-26T15:04:18.952Z,101522.19
2024-01-26T15:06:46.391Z,101520.44
2024-01-26T15:09:13.625Z,101515.16
2024-01-26T15:11:41.676Z,101529.22
2024-01-26T15:14:08.954Z,101535.31
2024-01-26T15:16:36.380Z,101534.47
2024-01-26T15:19:04.870Z,101549.34
2024-01-26T15:21:32.320Z,101565.13
2024-01-26T15:23:59.524Z,101555.47
2024-01-26T15:26:26.697Z,101554.63
2024-01-26T15:28:54.130Z,101565.09
2024-01-26T15:31:24.345Z,101581.78
2024-01-26T15:33:51.766Z,101592.28
2024-01-26T15:36:30.182Z,101601.06
2024-01-26T15:38:57.875Z,101608.06
2024-01-26T15:41:26.077Z,101629.09
2024-01-26T15:43:53.490Z,101636.13
2024-01-26T15:46:20.542Z,101638.75
2024-01-26T15:48:47.795Z,101644.88
2024-01-26T15:51:15.295Z,101657.19
2024-01-26T15:53:43.173Z,101666.81
2024-01-26T15:56:12.430Z,101667.69
2024-01-26T15:58:39.500Z,101655.44
2024-01-26T16:01:06.831Z,101656.31
2024-01-26T16:03:34.074Z,101665.97
2024-01-26T16:06:01.416Z,101687.00
2024-01-26T16:08:28.491Z,101685.25
2024-01-26T16:10:57.372Z,101707.19
2024-01-26T16:13:24.410Z,101708.91
2024-01-26T16:15:54.261Z,101714.19
2024-01-26T16:18:22.111Z,101716.78
2024-01-26T16:20:49.897Z,101728.19
2024-01-26T16:23:19.991Z,101722.94
2024-01-26T16:25:47.017Z,101751.88
2024-01-26T16:28:14.180Z,101761.47
2024-01-26T16:30:41.193Z,101765.88
2024-01-26T16:33:08.364Z,101772.84
2024-01-26T16:35:35.410Z,101778.09
2024-01-26T16:38:02.548Z,101765.84
2024-01-26T16:40:33.024Z,101777.22
2024-01-26T16:43:02.853Z,101780.72
2024-01-26T16:45:30.106Z,101769.34
2024-01-26T16:47:57.290Z,101797.38
2024-01-26T16:50:27.447Z,101810.53
2024-01-26T16:52:54.496Z,101812.25
2024-01-26T16:55:21.927Z,101815.78
2024-01-26T16:57:49.024Z,101813.13
2024-01-26T17:00:19.523Z,101829.75
2024-01-26T17:02:46.666Z,101834.13
2024-01-26T17:05:14.240Z,101839.34
2024-01-26T17:07:41.281Z,101836.66
2024-01-26T17:10:11.416Z,101836.63
2024-01-26T17:12:38.357Z,101835.69
2024-01-26T17:15:06.462Z,101845.31
2024-01-26T17:17:36.613Z,101851.38
2024-01-26T17:20:03.731Z,101869.75
2024-01-26T17:22:36.909Z,101877.59
2024-01-26T17:25:08.938Z,101869.66
2024-01-26T17:27:44.270Z,101889.69
2024-01-26T17:30:12.195Z,101890.53
2024-01-26T17:32:40.795Z,101899.25
2024-01-26T17:35:08.293Z,101913.19
2024-01-26T17:37:35.763Z,101914.88
2024-01-26T17:40:04.226Z,101928.91
2024-01-26T17:42:32.353Z,101934.97
2024-01-26T17:44:59.862Z,101935.75
2024-01-26T17:47:27.188Z,101928.69
2024-01-26T17:49:54.456Z,101940.88
2024-01-26T17:52:21.646Z,101953.09
2024-01-26T17:54:51.437Z,101953.03
2024-01-26T17:57:18.652Z,101942.41
2024-01-26T17:59:49.020Z,101952.91
2024-01-26T18:02:16.186Z,101957.19
2024-01-26T18:04:43.747Z,101949.09
2024-01-26T18:07:11.020Z,101957.91
2024-01-26T18:09:38.112Z,101967.56
2024-01-26T18:12:05.556Z,101970.91
2024-01-26T18:14:40.208Z,101981.31
2024-01-26T18:17:07.858Z,101988.31
2024-01-26T18:19:37.823Z,101996.22
2024-01-26T18:22:05.130Z,101993.44
2024-01-26T18:24:32.239Z,102005.72
2024-01-26T18:26:59.454Z,102004.75
2024-01-26T18:29:27.404Z,102019.63
2024-01-26T18:31:54.521Z,102026.53
2024-01-26T18:34:21.789Z,102029.09
2024-01-26T18:36:53.870Z,102022.00
2024-01-26T18:39:21.988Z,102034.09
2024-01-26T18:41:49.421Z,102030.50
2024-01-26T18:44:16.478Z,102051.56
2024-01-26T18:46:46.354Z,102061.16
2024-01-26T18:49:13.523Z,102061.03
2024-01-26T18:51:41.058Z,102076.72
2024-01-26T18:54:08.695Z,102071.31
2024-01-26T18:56:35.978Z,102082.72
2024-01-26T18:59:08.428Z,102096.72
2024-01-26T19:01:36.070Z,102098.56
2024-01-26T19:04:03.594Z,102103.72
2024-01-26T19:06:31.696Z,102114.28
2024-01-26T19:08:58.902Z,102109.81
2024-01-26T19:11:26.932Z,102108.00
2024-01-26T19:13:54.094Z,102118.44
2024-01-26T19:16:21.444Z,102112.00
2024-01-26T19:18:51.550Z,102120.75
2024-01-26T19:21:19.356Z,102128.50
2024-01-26T19:23:46.683Z,102153.00
2024-01-26T19:26:14.481Z,102158.28
2024-01-26T19:28:41.614Z,102158.25
2024-01-26T19:31:08.688Z,102157.44
2024-01-26T19:33:35.922Z,102181.91
2024-01-26T19:36:06.630Z,102174.75
2024-01-26T19:38:36.761Z,102181.75
2024-01-26T19:41:06.802Z,102186.09
2024-01-26T19:43:35.461Z,102184.22
2024-01-26T19:46:05.725Z,102191.25
2024-01-26T19:48:33.088Z,102191.16
2024-01-26T19:51:03.231Z,102182.28
2024-01-26T19:53:34.537Z,102194.34
2024-01-26T19:56:02.893Z,102182.84
2024-01-26T19:58:30.190Z,102193.34
2024-01-26T20:00:57.206Z,102205.69
2024-01-26T20:03:25.103Z,102217.06
2024-01-26T20:05:52.754Z,102217.91
2024-01-26T20:08:20.098Z,102208.13
2024-01-26T20:10:47.280Z,102208.88
2024-01-26T20:13:17.914Z,102223.72
2024-01-26T20:15:48.111Z,102221.81
2024-01-26T20:18:15.275Z,102211.09
2024-01-26T20:20:42.662Z,102222.41
2024-01-26T20:23:09.944Z,102216.22
2024-01-26T20:25:38.777Z,102213.41
2024-01-26T20:28:07.124Z,102223.03
2024-01-26T20:30:34.269Z,102222.00
2024-01-26T20:33:02.999Z,102231.53
2024-01-26T20:35:30.543Z,102229.59
2024-01-26T20:38:00.738Z,102228.63
2024-01-26T20:40:31.970Z,102212.81
2024-01-26T20:43:03.612Z,102215.50
2024-01-26T20:45:31.041Z,102221.59
2024-01-26T20:47:58.391Z,102230.28
2024-01-26T20:50:28.089Z,102228.31
2024-01-26T20:52:55.192Z,102227.28
2024-01-26T20:55:22.336Z,102228.88
2024-01-26T20:57:53.693Z,102224.50
2024-01-26T21:00:21.986Z,102238.53
2024-01-26T21:02:49.568Z,102221.63
2024-01-26T21:05:17.557Z,102241.47
2024-01-26T21:07:59.984Z,102241.25
2024-01-26T21:10:28.078Z,102243.81
2024-01-26T21:12:58.466Z,102250.78
2024-01-26T21:15:26.111Z,102249.81
2024-01-26T21:17:54.028Z,102260.25
2024-01-26T21:20:23.873Z,102250.38
2024-01-26T21:22:52.201Z,102257.34
2024-01-26T21:25:19.985Z,102266.03
2024-01-26T21:27:47.261Z,102264.97
2024-01-26T21:30:15.415Z,102263.09
2024-01-26T21:32:42.831Z,102270.09
2024-01-26T21:35:10.844Z,102272.47
2024-01-26T21:37:38.386Z,102270.41
2024-01-26T21:40:09.694Z,102280.81
2024-01-26T21:42:39.843Z,102275.84
2024-01-26T21:45:07.430Z,102282.38
2024-01-26T21:47:34.761Z,102295.09
2024-01-26T21:50:02.247Z,102304.97
2024-01-26T21:52:30.493Z,102290.59
2024-01-26T21:54:57.937Z,102296.34
2024-01-26T21:57:25.206Z,102297.97
2024-01-26T21:59:53.464Z,102314.91
2024-01-26T22:02:21.457Z,102297.97
2024-01-26T22:04:48.548Z,102310.44
2024-01-26T22:07:16.026Z,102313.72
2024-01-26T22:09:48.736Z,102302.63
2024-01-26T22:12:18.666Z,102300.03
2024-01-26T22:14:45.806Z,102298.31
2024-01-26T22:17:15.131Z,102283.53
2024-01-26T22:19:42.325Z,102300.16
2024-01-26T22:22:09.438Z,102305.41
2024-01-26T22:24:37.653Z,102298.22
2024-01-26T22:27:04.859Z,102306.72
2024-01-26T22:29:32.024Z,102305.53
2024-01-26T22:31:59.464Z,102320.34
2024-01-26T22:34:26.829Z,102316.38
2024-01-26T22:36:53.917Z,102309.78
2024-01-26T22:39:21.728Z,102313.22
2024-01-26T22:41:49.239Z,102312.56
2024-01-26T22:44:16.338Z,102316.41
2024-01-26T22:46:43.432Z,102322.44
2024-01-26T22:49:11.223Z,102319.91
2024-01-26T22:51:38.678Z,102323.38
2024-01-26T22:54:05.806Z,102321.56
2024-01-26T22:56:32.826Z,102317.25
2024-01-26T22:59:00.047Z,102338.09
2024-01-26T23:01:27.204Z,102344.03
2024-01-26T23:03:55.245Z,102330.34
2024-01-26T23:06:23.038Z,102327.84
2024-01-26T23:08:51.338Z,102349.63
2024-01-26T23:11:20.972Z,102347.03
2024-01-26T23:13:51.267Z,102350.56
2024-01-26T23:16:18.576Z,102359.16
2024-01-26T23:18:45.772Z,102370.69
2024-01-26T23:21:13.773Z,102368.69
2024-01-26T23:23:40.866Z,102366.50
2024-01-26T23:26:08.742Z,102358.84
2024-01-26T23:28:37.481Z,102357.34
2024-01-26T23:31:05.170Z,102366.00
2024-01-26T23:33:32.316Z,102381.00
2024-01-26T23:35:59.508Z,102364.03
2024-01-26T23:38:27.696Z,102387.38
2024-01-26T23:40:58.019Z,102380.03
2024-01-26T23:43:25.482Z,102391.69
2024-01-26T23:45:52.790Z,102365.09
2024-01-26T23:48:20.339Z,102384.47
2024-01-26T23:50:47.818Z,102387.03
2024-01-26T23:53:15.178Z,102390.75
2024-01-26T23:55:42.307Z,102389.97
2024-01-26T23:58:09.448Z,102376.81
